createdAt,value
2023-04-27T00:02:21.307Z,17.40
2023-04-27T00:04:49.492Z,17.40
2023-04-27T00:07:17.694Z,17.40
2023-04-27T00:09:45.893Z,17.40
2023-04-27T00:12:13.744Z,17.30
2023-04-27T00:14:42.090Z,17.30
2023-04-27T00:17:11.417Z,17.30
2023-04-27T00:19:41.913Z,17.30
2023-04-27T00:22:09.837Z,17.30
2023-04-27T00:24:37.835Z,17.20
2023-04-27T00:27:05.827Z,17.20
2023-04-27T00:29:34.164Z,17.20
2023-04-27T00:32:02.099Z,17.20
2023-04-27T00:34:31.909Z,17.10
2023-04-27T00:36:59.875Z,17.20
2023-04-27T00:39:28.176Z,17.10
2023-04-27T00:41:56.152Z,17.10
2023-04-27T00:44:25.108Z,17.10
2023-04-27T00:46:53.613Z,17.00
2023-04-27T00:49:21.586Z,17.00
2023-04-27T00:51:51.375Z,17.00
2023-04-27T00:54:20.976Z,17.00
2023-04-27T00:56:50.429Z,17.00
2023-04-27T00:59:18.474Z,17.00
2023-04-27T01:01:46.969Z,17.00
2023-04-27T01:04:15.087Z,16.90
2023-04-27T01:06:43.822Z,16.90
2023-04-27T01:09:13.737Z,16.90
2023-04-27T01:11:41.974Z,16.90
2023-04-27T01:14:09.961Z,16.80
2023-04-27T01:16:39.298Z,16.80
2023-04-27T01:19:07.754Z,16.80
2023-04-27T01:21:35.698Z,16.80
2023-04-27T01:24:06.172Z,16.80
2023-04-27T01:26:34.197Z,16.80
2023-04-27T01:29:02.434Z,16.80
2023-04-27T01:31:30.909Z,16.70
2023-04-27T01:33:58.625Z,16.70
2023-04-27T01:36:28.085Z,16.70
2023-04-27T01:38:56.182Z,16.70
2023-04-27T01:41:25.449Z,16.70
2023-04-27T01:43:53.166Z,16.70
2023-04-27T01:46:20.962Z,16.60
2023-04-27T01:48:49.159Z,16.60
2023-04-27T01:51:16.880Z,16.60
2023-04-27T01:53:45.012Z,16.60
2023-04-27T01:56:12.718Z,16.60
2023-04-27T01:58:42.085Z,16.60
2023-04-27T02:01:09.761Z,16.60
2023-04-27T02:03:37.634Z,16.50
2023-04-27T02:06:05.919Z,16.50
2023-04-27T02:08:34.080Z,16.50
2023-04-27T02:11:02.370Z,16.50
2023-04-27T02:13:30.275Z,16.50
2023-04-27T02:16:02.402Z,16.50
2023-04-27T02:18:30.416Z,16.40
2023-04-27T02:20:58.555Z,16.40
2023-04-27T02:23:26.681Z,16.40
2023-04-27T02:25:54.424Z,16.40
2023-04-27T02:28:22.182Z,16.30
2023-04-27T02:30:50.720Z,16.40
2023-04-27T02:33:19.754Z,16.30
2023-04-27T02:35:47.460Z,16.30
2023-04-27T02:38:16.092Z,16.30
2023-04-27T02:40:43.774Z,16.30
2023-04-27T02:43:11.782Z,16.30
2023-04-27T02:45:39.538Z,16.30
2023-04-27T02:48:08.355Z,16.20
2023-04-27T02:50:41.868Z,16.20
2023-04-27T02:53:10.086Z,16.20
2023-04-27T02:55:37.856Z,16.20
2023-04-27T02:58:05.550Z,16.20
2023-04-27T03:00:34.526Z,16.20
2023-04-27T03:03:02.935Z,16.20
2023-04-27T03:05:31.765Z,16.20
2023-04-27T03:08:01.223Z,16.10
2023-04-27T03:10:28.976Z,16.10
2023-04-27T03:12:57.311Z,16.10
2023-04-27T03:15:25.153Z,16.10
2023-04-27T03:17:53.132Z,16.10
2023-04-27T03:20:21.151Z,16.10
2023-04-27T03:22:49.431Z,16.00
2023-04-27T03:25:18.752Z,16.00
2023-04-27T03:27:46.953Z,16.00
2023-04-27T03:30:15.635Z,16.00
2023-04-27T03:32:45.572Z,16.00
2023-04-27T03:35:15.905Z,16.00
2023-04-27T03:37:46.320Z,16.00
2023-04-27T03:40:15.474Z,16.00
2023-04-27T03:42:45.297Z,16.00
2023-04-27T03:45:13.216Z,16.00
2023-04-27T03:47:41.347Z,15.90
2023-04-27T03:50:10.035Z,15.90
2023-04-27T03:52:38.478Z,15.90
2023-04-27T03:55:07.407Z,15.90
2023-04-27T03:57:35.866Z,15.90
2023-04-27T04:00:11.526Z,15.90
2023-04-27T04:02:40.041Z,15.90
2023-04-27T04:05:08.866Z,15.80
2023-04-27T04:07:37.409Z,15.80
2023-04-27T04:10:06.417Z,15.90
2023-04-27T04:12:34.379Z,15.80
2023-04-27T04:15:02.917Z,15.80
2023-04-27T04:17:34.478Z,15.80
2023-04-27T04:20:02.339Z,15.80
2023-04-27T04:22:30.285Z,15.80
2023-04-27T04:24:58.158Z,15.80
2023-04-27T04:27:26.684Z,15.80
2023-04-27T04:29:56.074Z,15.80
2023-04-27T04:32:24.482Z,15.80
2023-04-27T04:34:54.640Z,15.80
2023-04-27T04:37:23.301Z,15.80
2023-04-27T04:39:51.139Z,15.80
2023-04-27T04:42:19.464Z,15.80
2023-04-27T04:44:47.671Z,15.70
2023-04-27T04:47:15.590Z,15.80
2023-04-27T04:49:43.879Z,15.80
2023-04-27T04:52:13.284Z,15.80
2023-04-27T04:54:41.311Z,15.80
2023-04-27T04:57:09.851Z,15.80
2023-04-27T04:59:37.770Z,15.80
2023-04-27T05:02:06.150Z,15.80
2023-04-27T05:04:34.335Z,15.80
2023-04-27T05:07:02.787Z,15.80
2023-04-27T05:09:32.162Z,15.80
2023-04-27T05:12:00.968Z,15.80
2023-04-27T05:14:29.053Z,15.80
2023-04-27T05:16:57.269Z,15.80
2023-04-27T05:19:25.341Z,15.80
2023-04-27T05:21:53.551Z,15.80
2023-04-27T05:24:21.265Z,15.80
2023-04-27T05:26:50.798Z,15.80
2023-04-27T05:29:19.035Z,15.80
2023-04-27T05:31:46.916Z,15.80
2023-04-27T05:34:14.951Z,15.80
2023-04-27T05:36:42.788Z,15.80
2023-04-27T05:39:11.126Z,15.90
2023-04-27T05:41:38.855Z,15.80
2023-04-27T05:44:08.034Z,15.90
2023-04-27T05:46:38.543Z,15.90
2023-04-27T05:49:06.801Z,15.80
2023-04-27T05:51:35.154Z,15.90
2023-04-27T05:54:03.136Z,15.90
2023-04-27T05:56:31.517Z,15.90
2023-04-27T05:59:01.799Z,15.90
2023-04-27T06:01:32.355Z,16.00
2023-04-27T06:04:01.750Z,16.00
2023-04-27T06:06:33.092Z,16.00
2023-04-27T06:09:00.846Z,16.00
2023-04-27T06:11:28.941Z,16.00
2023-04-27T06:13:57.107Z,16.10
2023-04-27T06:16:24.991Z,16.10
2023-04-27T06:18:54.541Z,16.10
2023-04-27T06:21:22.238Z,16.20
2023-04-27T06:23:50.605Z,16.20
2023-04-27T06:26:18.631Z,16.30
2023-04-27T06:28:46.762Z,16.30
2023-04-27T06:31:14.900Z,16.40
2023-04-27T06:33:43.419Z,16.40
2023-04-27T06:36:12.695Z,16.50
2023-04-27T06:38:41.175Z,16.60
2023-04-27T06:41:09.118Z,16.60
2023-04-27T06:43:36.960Z,16.70
2023-04-27T06:46:05.827Z,16.80
2023-04-27T06:48:33.540Z,16.80
2023-04-27T06:51:01.804Z,16.90
2023-04-27T06:53:31.968Z,16.90
2023-04-27T06:55:59.649Z,17.00
2023-04-27T06:58:28.389Z,17.00
2023-04-27T07:00:56.122Z,17.10
2023-04-27T07:03:24.408Z,17.20
2023-04-27T07:05:53.103Z,17.30
2023-04-27T07:08:20.893Z,17.30
2023-04-27T07:10:50.582Z,17.40
2023-04-27T07:13:18.581Z,17.50
2023-04-27T07:15:46.465Z,17.60
2023-04-27T07:18:14.958Z,17.60
2023-04-27T07:20:43.456Z,17.70
2023-04-27T07:23:11.370Z,17.70
2023-04-27T07:25:40.223Z,17.80
2023-04-27T07:28:17.810Z,17.90
2023-04-27T07:30:45.713Z,18.10
2023-04-27T07:33:13.908Z,18.20
2023-04-27T07:35:42.424Z,18.30
2023-04-27T07:38:10.364Z,18.50
2023-04-27T07:40:38.848Z,18.60
2023-04-27T07:43:07.146Z,18.70
2023-04-27T07:45:39.152Z,18.90
2023-04-27T07:48:08.064Z,19.10
2023-04-27T07:50:36.033Z,19.20
2023-04-27T07:53:04.581Z,19.30
2023-04-27T07:55:32.374Z,19.50
2023-04-27T07:58:00.786Z,19.70
2023-04-27T08:00:29.086Z,19.90
2023-04-27T08:02:58.325Z,20.00
2023-04-27T08:05:26.861Z,20.20
2023-04-27T08:07:55.099Z,20.30
2023-04-27T08:10:23.437Z,20.50
2023-04-27T08:12:51.898Z,20.60
2023-04-27T08:15:20.268Z,20.80
2023-04-27T08:17:48.287Z,20.90
2023-04-27T08:20:18.157Z,21.10
2023-04-27T08:22:46.748Z,21.30
2023-04-27T08:25:14.622Z,21.50
2023-04-27T08:27:43.081Z,21.60
2023-04-27T08:30:11.974Z,21.80
2023-04-27T08:32:40.854Z,22.00
2023-04-27T08:35:09.273Z,22.20
2023-04-27T08:37:39.632Z,22.50
2023-04-27T08:40:09.990Z,22.70
2023-04-27T08:42:38.398Z,22.90
2023-04-27T08:45:09.442Z,23.10
2023-04-27T08:47:43.409Z,23.30
2023-04-27T08:50:12.713Z,23.40
2023-04-27T08:52:42.028Z,23.50
2023-04-27T08:55:10.986Z,23.40
2023-04-27T08:57:38.851Z,23.40
2023-04-27T09:00:13.004Z,23.30
2023-04-27T09:02:46.520Z,23.20
2023-04-27T09:05:18.830Z,23.20
2023-04-27T09:08:02.047Z,23.10
2023-04-27T09:10:29.970Z,23.10
2023-04-27T09:12:58.888Z,23.10
2023-04-27T09:15:26.975Z,23.10
2023-04-27T09:17:56.240Z,23.10
2023-04-27T09:20:29.012Z,23.00
2023-04-27T09:22:58.789Z,22.90
2023-04-27T09:25:28.080Z,22.80
2023-04-27T09:27:56.095Z,22.80
2023-04-27T09:30:24.340Z,22.80
2023-04-27T09:32:53.785Z,22.70
2023-04-27T09:35:25.931Z,22.70
2023-04-27T09:37:54.205Z,22.70
2023-04-27T09:40:27.013Z,22.70
2023-04-27T09:42:55.763Z,22.80
2023-04-27T09:45:24.135Z,22.70
2023-04-27T09:47:52.091Z,22.80
2023-04-27T09:50:20.301Z,23.00
2023-04-27T09:52:48.069Z,23.30
2023-04-27T09:55:17.549Z,23.60
2023-04-27T09:57:53.955Z,24.00
2023-04-27T10:00:32.627Z,24.40
2023-04-27T10:03:08.391Z,24.90
2023-04-27T10:06:11.509Z,25.40
2023-04-27T10:08:40.062Z,25.80
2023-04-27T10:11:15.348Z,25.90
2023-04-27T10:13:54.461Z,26.00
2023-04-27T10:16:23.165Z,26.20
2023-04-27T10:18:55.141Z,26.40
2023-04-27T10:21:24.067Z,26.70
2023-04-27T10:23:53.072Z,27.00
2023-04-27T10:26:24.337Z,27.30
2023-04-27T10:29:08.866Z,27.80
2023-04-27T10:31:37.094Z,28.10
2023-04-27T10:34:09.598Z,28.40
2023-04-27T10:36:38.112Z,28.50
2023-04-27T10:39:17.007Z,28.60
2023-04-27T10:41:52.633Z,28.50
2023-04-27T10:44:25.862Z,28.60
2023-04-27T10:46:54.176Z,28.80
2023-04-27T10:49:22.628Z,28.70
2023-04-27T10:51:51.342Z,28.70
2023-04-27T10:54:19.834Z,28.90
2023-04-27T10:56:47.955Z,29.20
2023-04-27T10:59:16.467Z,29.50
2023-04-27T11:01:49.886Z,29.90
2023-04-27T11:04:18.681Z,30.00
2023-04-27T11:06:47.037Z,30.10
2023-04-27T11:09:15.787Z,29.90
2023-04-27T11:11:46.871Z,30.10
2023-04-27T11:14:21.833Z,30.60
2023-04-27T11:16:51.211Z,31.80
2023-04-27T11:19:19.128Z,33.00
2023-04-27T11:21:47.053Z,34.30
2023-04-27T11:24:15.648Z,35.30
2023-04-27T11:26:44.274Z,35.30
2023-04-27T11:29:14.626Z,35.50
2023-04-27T11:31:47.379Z,35.90
2023-04-27T11:34:19.384Z,34.90
2023-04-27T11:37:10.468Z,34.00
2023-04-27T11:39:43.381Z,33.70
2023-04-27T11:42:18.415Z,33.00
2023-04-27T11:44:52.992Z,32.20
2023-04-27T11:47:21.225Z,31.60
2023-04-27T11:49:51.592Z,31.10
2023-04-27T11:52:19.641Z,30.70
2023-04-27T11:54:51.090Z,30.30
2023-04-27T11:57:19.497Z,30.00
2023-04-27T11:59:47.948Z,29.70
2023-04-27T12:02:17.153Z,29.50
2023-04-27T12:04:45.758Z,29.20
2023-04-27T12:07:15.632Z,29.00
2023-04-27T12:09:44.126Z,29.80
2023-04-27T12:12:12.898Z,30.00
2023-04-27T12:14:41.915Z,29.90
2023-04-27T12:17:09.828Z,29.90
2023-04-27T12:19:38.512Z,29.80
2023-04-27T12:22:07.204Z,29.80
2023-04-27T12:24:36.978Z,29.50
2023-04-27T12:27:05.511Z,29.20
2023-04-27T12:29:33.700Z,29.00
2023-04-27T12:32:01.685Z,28.80
2023-04-27T12:34:29.733Z,28.60
2023-04-27T12:36:58.009Z,28.60
2023-04-27T12:39:26.167Z,29.70
2023-04-27T12:41:56.019Z,31.00
2023-04-27T12:44:24.456Z,31.00
2023-04-27T12:46:52.422Z,31.20
2023-04-27T12:49:20.821Z,31.30
2023-04-27T12:51:51.855Z,31.60
2023-04-27T12:54:19.975Z,31.50
2023-04-27T12:56:48.591Z,31.00
2023-04-27T12:59:18.435Z,30.50
2023-04-27T13:01:46.618Z,30.20
2023-04-27T13:04:20.177Z,30.30
2023-04-27T13:06:49.395Z,30.60
2023-04-27T13:09:19.844Z,30.40
2023-04-27T13:11:48.217Z,30.60
2023-04-27T13:14:18.008Z,30.90
2023-04-27T13:16:46.028Z,31.20
2023-04-27T13:19:14.029Z,32.20
2023-04-27T13:21:42.514Z,33.10
2023-04-27T13:24:10.536Z,33.50
2023-04-27T13:26:38.973Z,33.90
2023-04-27T13:29:07.249Z,34.10
2023-04-27T13:31:36.455Z,34.20
2023-04-27T13:34:05.151Z,34.30
2023-04-27T13:36:33.373Z,34.30
2023-04-27T13:39:01.899Z,34.00
2023-04-27T13:41:30.170Z,34.00
2023-04-27T13:43:58.226Z,33.40
2023-04-27T13:46:27.263Z,32.60
2023-04-27T13:48:57.589Z,31.90
2023-04-27T13:51:26.662Z,31.30
2023-04-27T13:53:54.626Z,31.00
2023-04-27T13:56:22.903Z,30.60
2023-04-27T13:58:51.424Z,30.20
2023-04-27T14:01:20.024Z,30.30
2023-04-27T14:03:48.106Z,30.30
2023-04-27T14:06:17.747Z,30.00
2023-04-27T14:08:46.277Z,29.70
2023-04-27T14:11:14.360Z,29.40
2023-04-27T14:13:42.317Z,29.20
2023-04-27T14:16:10.111Z,29.00
2023-04-27T14:18:37.889Z,28.80
2023-04-27T14:21:05.802Z,28.60
2023-04-27T14:23:36.569Z,28.40
2023-04-27T14:26:05.295Z,28.20
2023-04-27T14:28:33.343Z,28.10
2023-04-27T14:31:01.904Z,28.00
2023-04-27T14:33:29.667Z,27.90
2023-04-27T14:35:58.434Z,28.10
2023-04-27T14:38:26.350Z,28.30
2023-04-27T14:40:56.227Z,28.50
2023-04-27T14:43:24.582Z,28.60
2023-04-27T14:45:59.324Z,28.70
2023-04-27T14:48:33.402Z,28.80
2023-04-27T14:51:01.304Z,28.80
2023-04-27T14:53:29.568Z,28.70
2023-04-27T14:55:59.095Z,28.50
2023-04-27T14:58:27.520Z,28.40
2023-04-27T15:00:55.862Z,28.20
2023-04-27T15:03:24.488Z,28.10
2023-04-27T15:05:53.014Z,27.90
2023-04-27T15:08:21.082Z,27.80
2023-04-27T15:10:49.423Z,27.60
2023-04-27T15:13:18.873Z,27.50
2023-04-27T15:15:47.583Z,27.40
2023-04-27T15:18:15.978Z,27.30
2023-04-27T15:20:44.724Z,27.20
2023-04-27T15:23:12.753Z,27.10
2023-04-27T15:25:41.146Z,27.10
2023-04-27T15:28:09.876Z,27.00
2023-04-27T15:30:39.246Z,27.00
2023-04-27T15:33:10.136Z,26.90
2023-04-27T15:35:40.320Z,26.90
2023-04-27T15:38:08.630Z,26.90
2023-04-27T15:40:36.405Z,26.80
2023-04-27T15:43:05.266Z,26.80
2023-04-27T15:45:32.993Z,26.90
2023-04-27T15:48:02.589Z,26.80
2023-04-27T15:50:30.548Z,26.80
2023-04-27T15:52:58.961Z,26.80
2023-04-27T15:55:27.012Z,26.80
2023-04-27T15:57:54.915Z,26.70
2023-04-27T16:00:23.921Z,26.60
2023-04-27T16:02:52.319Z,25.20
2023-04-27T16:05:21.853Z,23.40
2023-04-27T16:07:49.728Z,22.40
2023-04-27T16:10:17.582Z,21.60
2023-04-27T16:12:45.388Z,21.10
2023-04-27T16:15:13.391Z,21.30
2023-04-27T16:17:41.771Z,20.80
2023-04-27T16:20:13.932Z,20.70
2023-04-27T16:22:43.726Z,20.50
2023-04-27T16:25:12.250Z,20.70
2023-04-27T16:27:40.175Z,21.60
2023-04-27T16:30:09.370Z,22.40
2023-04-27T16:32:38.440Z,23.00
2023-04-27T16:35:07.767Z,23.50
2023-04-27T16:37:37.317Z,23.80
2023-04-27T16:40:08.546Z,24.00
2023-04-27T16:42:37.053Z,24.20
2023-04-27T16:45:06.803Z,24.40
2023-04-27T16:47:36.761Z,24.60
2023-04-27T16:50:05.286Z,24.60
2023-04-27T16:52:33.326Z,24.80
2023-04-27T16:55:01.240Z,24.80
2023-04-27T16:57:31.004Z,24.80
2023-04-27T16:59:58.927Z,24.70
2023-04-27T17:02:27.481Z,24.80
2023-04-27T17:04:56.648Z,24.70
2023-04-27T17:07:28.266Z,24.60
2023-04-27T17:09:56.593Z,24.60
2023-04-27T17:12:24.354Z,24.50
2023-04-27T17:14:56.034Z,24.50
2023-04-27T17:17:24.217Z,24.40
2023-04-27T17:19:52.263Z,24.30
2023-04-27T17:22:20.545Z,24.30
2023-04-27T17:24:49.044Z,24.30
2023-04-27T17:27:17.136Z,24.40
2023-04-27T17:29:45.157Z,24.70
2023-04-27T17:32:14.908Z,24.80
2023-04-27T17:34:43.170Z,24.90
2023-04-27T17:37:11.689Z,25.00
2023-04-27T17:39:39.540Z,25.00
2023-04-27T17:42:12.702Z,25.10
2023-04-27T17:44:42.595Z,25.20
2023-04-27T17:47:10.822Z,25.10
2023-04-27T17:49:40.310Z,25.20
2023-04-27T17:52:08.317Z,25.20
2023-04-27T17:54:36.728Z,25.20
2023-04-27T17:57:04.704Z,25.20
2023-04-27T17:59:33.563Z,25.20
2023-04-27T18:02:01.613Z,25.20
2023-04-27T18:04:30.189Z,25.10
2023-04-27T18:06:59.648Z,25.20
2023-04-27T18:09:29.502Z,25.10
2023-04-27T18:11:59.072Z,25.10
2023-04-27T18:14:27.306Z,25.10
2023-04-27T18:16:55.337Z,25.10
2023-04-27T18:19:23.941Z,25.10
2023-04-27T18:21:51.857Z,25.00
2023-04-27T18:24:23.078Z,25.00
2023-04-27T18:26:51.308Z,25.00
2023-04-27T18:29:19.710Z,24.90
2023-04-27T18:31:47.783Z,24.90
2023-04-27T18:34:15.775Z,24.80
2023-04-27T18:36:43.570Z,24.80
2023-04-27T18:39:11.440Z,24.70
2023-04-27T18:41:40.900Z,24.60
2023-04-27T18:44:08.863Z,24.60
2023-04-27T18:46:38.940Z,24.60
2023-04-27T18:49:07.431Z,24.50
2023-04-27T18:51:36.249Z,24.50
2023-04-27T18:56:33.414Z,24.40
2023-04-27T18:59:03.280Z,24.30
2023-04-27T19:01:31.439Z,24.30
2023-04-27T19:03:59.869Z,24.30
2023-04-27T19:06:28.465Z,24.30
2023-04-27T19:08:57.138Z,24.20
2023-04-27T19:11:25.658Z,24.20
2023-04-27T19:13:53.942Z,24.10
2023-04-27T19:16:24.428Z,24.00
2023-04-27T19:18:52.577Z,23.90
2023-04-27T19:21:20.601Z,23.80
2023-04-27T19:23:48.567Z,23.70
2023-04-27T19:26:16.756Z,23.60
2023-04-27T19:28:44.932Z,23.50
2023-04-27T19:31:13.046Z,23.40
2023-04-27T19:36:18.937Z,23.20
2023-04-27T19:38:47.047Z,23.10
2023-04-27T19:41:15.140Z,23.00
2023-04-27T19:43:43.208Z,22.90
2023-04-27T19:46:11.584Z,22.90
2023-04-27T19:48:42.522Z,22.80
2023-04-27T19:51:12.077Z,22.80
2023-04-27T19:53:40.059Z,22.70
2023-04-27T19:56:08.170Z,22.60
2023-04-27T19:58:37.835Z,22.50
2023-04-27T20:01:06.466Z,22.50
2023-04-27T20:03:35.574Z,22.50
2023-04-27T20:06:03.954Z,22.40
2023-04-27T20:08:36.974Z,22.40
2023-04-27T20:11:06.740Z,22.30
2023-04-27T20:13:35.114Z,22.30
2023-04-27T20:16:03.343Z,22.20
2023-04-27T20:18:32.426Z,22.20
2023-04-27T20:21:00.765Z,22.20
2023-04-27T20:23:28.699Z,22.10
2023-04-27T20:25:58.216Z,22.10
2023-04-27T20:28:27.571Z,22.00
2023-04-27T20:30:56.617Z,22.00
2023-04-27T20:33:24.795Z,22.00
2023-04-27T20:35:55.523Z,21.90
2023-04-27T20:38:24.293Z,21.90
2023-04-27T20:40:53.665Z,21.80
2023-04-27T20:43:23.134Z,21.80
2023-04-27T20:45:51.545Z,21.80
2023-04-27T20:48:19.622Z,21.70
2023-04-27T20:50:47.702Z,21.70
2023-04-27T20:53:15.728Z,21.60
2023-04-27T20:55:46.180Z,21.60
2023-04-27T20:58:14.783Z,21.60
2023-04-27T21:00:44.835Z,21.50
2023-04-27T21:03:13.186Z,21.40
2023-04-27T21:05:42.054Z,21.40
2023-04-27T21:08:10.229Z,21.40
2023-04-27T21:10:38.201Z,21.30
2023-04-27T21:13:06.495Z,21.30
2023-04-27T21:15:34.558Z,21.20
2023-04-27T21:20:34.837Z,21.20
2023-04-27T21:23:02.924Z,21.20
2023-04-27T21:25:31.838Z,21.20
2023-04-27T21:27:59.918Z,21.10
2023-04-27T21:30:30.859Z,21.10
2023-04-27T21:32:59.482Z,21.10
2023-04-27T21:35:28.989Z,21.10
2023-04-27T21:38:03.451Z,21.00
2023-04-27T21:40:32.030Z,21.00
2023-04-27T21:43:02.184Z,20.90
2023-04-27T21:45:30.371Z,20.90
2023-04-27T21:47:58.414Z,20.90
2023-04-27T21:50:26.974Z,20.80
2023-04-27T21:52:56.519Z,20.80
2023-04-27T21:55:24.493Z,20.80
2023-04-27T21:57:52.415Z,20.80
2023-04-27T22:00:20.474Z,20.70
2023-04-27T22:02:48.684Z,20.70
2023-04-27T22:05:20.898Z,20.70
2023-04-27T22:07:49.363Z,20.70
2023-04-27T22:10:19.228Z,20.60
2023-04-27T22:12:47.341Z,20.60
2023-04-27T22:15:15.607Z,20.50
2023-04-27T22:17:44.010Z,20.50
2023-04-27T22:20:13.013Z,20.50
2023-04-27T22:22:41.110Z,20.50
2023-04-27T22:25:10.208Z,20.40
2023-04-27T22:27:45.186Z,20.40
2023-04-27T22:30:15.392Z,20.40
2023-04-27T22:32:43.515Z,20.30
2023-04-27T22:35:24.823Z,20.30
2023-04-27T22:37:54.745Z,20.30
2023-04-27T22:40:22.730Z,20.30
2023-04-27T22:42:52.245Z,20.30
2023-04-27T22:45:20.020Z,20.20
2023-04-27T22:47:49.609Z,20.20
2023-04-27T22:50:18.178Z,20.10
2023-04-27T22:52:46.189Z,20.10
2023-04-27T22:55:14.199Z,20.10
2023-04-27T22:57:42.217Z,20.00
2023-04-27T23:00:12.888Z,20.00
2023-04-27T23:02:41.136Z,20.00
2023-04-27T23:05:10.714Z,20.00
2023-04-27T23:07:40.930Z,19.90
2023-04-27T23:10:09.486Z,19.90
2023-04-27T23:12:38.047Z,19.80
2023-04-27T23:15:06.554Z,19.80
2023-04-27T23:17:35.987Z,19.80
2023-04-27T23:20:08.793Z,19.80
2023-04-27T23:22:42.950Z,19.70
2023-04-27T23:25:11.383Z,19.70
2023-04-27T23:27:39.640Z,19.70
2023-04-27T23:30:09.369Z,19.60
2023-04-27T23:32:39.101Z,19.60
2023-04-27T23:35:07.522Z,19.60
2023-04-27T23:37:35.750Z,19.60
2023-04-27T23:40:04.087Z,19.50
2023-04-27T23:42:32.063Z,19.50
2023-04-27T23:44:59.810Z,19.50
2023-04-27T23:47:27.898Z,19.50
2023-04-27T23:49:57.816Z,19.50
2023-04-27T23:52:25.998Z,19.40
2023-04-27T23:54:53.944Z,19.40
2023-04-27T23:57:21.957Z,19.40
2023-04-27T23:59:50.241Z,19.30
